New Creation — 3EGO6 — position and weather

sailwx.info

Track history (hours):
 
Tides and Currents Weather Stations Pressure Air Temp Water Temp Dewpoint Dewpoint Depression Visibility Wind Speed Wind Dir Waves Ship Positions

New Creation

Last reported at 2015-Jan-15 02:05 UTC. Time now 2015-Jan-30 00:27 UTC.
Position N 21°50' E 119°47'.
Warning: this ship's position is 14 days out of date.

Length 176 m; draft 6.2 m.

Type: Cargo ship. MMSI: 353507000.

Date/timePositionNaut miles runAvg speedWind from/ knotsBaromVisibWave heightAir tempDewpointWater temp
2015-Jan-15 02:05N 21°50' E 119°47'812.3
2015-Jan-15 01:26N 21°58' E 119°47'2812.9
2015-Jan-14 23:18N 22°26' E 119°50'1013.2
2015-Jan-14 22:33N 22°36' E 119°50'1313.3
2015-Jan-14 21:33N 22°49' E 119°52'  
2015-Jan-12 15:10N 22°49' E 120°04'813.2
2015-Jan-12 14:33N 22°42' E 120°08'10 9.9
2015-Jan-12 13:33N 22°36' E 120°17'1 1.4
2015-Jan-12 12:29N 22°35' E 120°18'0 0.0
2015-Jan-12 11:29N 22°35' E 120°18'0 0.0
2015-Jan-12 10:29N 22°35' E 120°18'0 0.0
2015-Jan-12 09:29N 22°35' E 120°18'0 0.0
2015-Jan-12 08:29N 22°35' E 120°18'0 0.0
2015-Jan-12 07:29N 22°35' E 120°18'0 0.0
2015-Jan-12 06:29N 22°35' E 120°18'0 0.0
2015-Jan-12 05:23N 22°35' E 120°18'0 0.0
2015-Jan-12 04:29N 22°35' E 120°18'0 0.0
2015-Jan-12 03:29N 22°35' E 120°18'0 0.0
2015-Jan-12 02:29N 22°35' E 120°18'0 0.0
2015-Jan-12 01:29N 22°35' E 120°18'0 0.0
2015-Jan-12 00:29N 22°35' E 120°18'0 0.0
2015-Jan-11 23:29N 22°35' E 120°18'0 0.0
2015-Jan-11 22:23N 22°35' E 120°18'0 0.0
2015-Jan-11 21:29N 22°35' E 120°18'0 0.0
2015-Jan-11 20:29N 22°35' E 120°18'0 0.0
2015-Jan-11 19:29N 22°35' E 120°18'0 0.0
2015-Jan-11 18:23N 22°35' E 120°18'0 0.0
2015-Jan-11 17:29N 22°35' E 120°18'0 0.0
2015-Jan-11 16:29N 22°35' E 120°18'0 0.0
2015-Jan-11 15:29N 22°35' E 120°18'0 0.0
2015-Jan-11 14:29N 22°35' E 120°18'0 0.0
2015-Jan-11 13:29N 22°35' E 120°18'0 0.0
2015-Jan-11 12:29N 22°35' E 120°18'0 0.0
2015-Jan-11 11:29N 22°35' E 120°18'0 0.0
2015-Jan-11 10:11N 22°35' E 120°18'0 0.0
2015-Jan-11 09:29N 22°35' E 120°18'0 0.0
2015-Jan-11 07:17N 22°35' E 120°18'0 0.0
2015-Jan-11 05:17N 22°35' E 120°18'0 0.0
2015-Jan-11 03:29N 22°35' E 120°18'0 0.0
2015-Jan-11 02:29N 22°35' E 120°18'0 0.0
2015-Jan-11 01:29N 22°35' E 120°18'0 0.0
2015-Jan-11 00:23N 22°35' E 120°18'1 0.7
2015-Jan-10 23:33N 22°36' E 120°17'6 6.5
2015-Jan-10 22:33N 22°37' E 120°10'3 2.9
2015-Jan-10 21:30N 22°36' E 120°07'0 0.3
2015-Jan-10 20:33N 22°36' E 120°07'7 7.4
2015-Jan-10 19:33N 22°29' E 120°10'1110.5
2015-Jan-10 18:33N 22°19' E 120°13'  
Track history (hours):
 
Tides and Currents Weather Stations Pressure Air Temp Water Temp Dewpoint Dewpoint Depression Visibility Wind Speed Wind Dir Waves Ship Positions

New Creation

Last reported at 2015-Jan-15 02:05 UTC. Time now 2015-Jan-30 00:27 UTC.
Position N 21°50' E 119°47'.
Warning: this ship's position is 14 days out of date.

Length 176 m; draft 6.2 m.

Type: Cargo ship. MMSI: 353507000.

Date/timePositionNaut miles runAvg speedWind from/ knotsBaromVisibWave heightAir tempDewpointWater temp
2015-Jan-15 02:05N 21°50' E 119°47'812.3
2015-Jan-15 01:26N 21°58' E 119°47'2812.9
2015-Jan-14 23:18N 22°26' E 119°50'1013.2
2015-Jan-14 22:33N 22°36' E 119°50'1313.3
2015-Jan-14 21:33N 22°49' E 119°52'  
2015-Jan-12 15:10N 22°49' E 120°04'813.2
2015-Jan-12 14:33N 22°42' E 120°08'10 9.9
2015-Jan-12 13:33N 22°36' E 120°17'1 1.4
2015-Jan-12 12:29N 22°35' E 120°18'0 0.0
2015-Jan-12 11:29N 22°35' E 120°18'0 0.0
2015-Jan-12 10:29N 22°35' E 120°18'0 0.0
2015-Jan-12 09:29N 22°35' E 120°18'0 0.0
2015-Jan-12 08:29N 22°35' E 120°18'0 0.0
2015-Jan-12 07:29N 22°35' E 120°18'0 0.0
2015-Jan-12 06:29N 22°35' E 120°18'0 0.0
2015-Jan-12 05:23N 22°35' E 120°18'0 0.0
2015-Jan-12 04:29N 22°35' E 120°18'0 0.0
2015-Jan-12 03:29N 22°35' E 120°18'0 0.0
2015-Jan-12 02:29N 22°35' E 120°18'0 0.0
2015-Jan-12 01:29N 22°35' E 120°18'0 0.0
2015-Jan-12 00:29N 22°35' E 120°18'0 0.0
2015-Jan-11 23:29N 22°35' E 120°18'0 0.0
2015-Jan-11 22:23N 22°35' E 120°18'0 0.0
2015-Jan-11 21:29N 22°35' E 120°18'0 0.0
2015-Jan-11 20:29N 22°35' E 120°18'0 0.0
2015-Jan-11 19:29N 22°35' E 120°18'0 0.0
2015-Jan-11 18:23N 22°35' E 120°18'0 0.0
2015-Jan-11 17:29N 22°35' E 120°18'0 0.0
2015-Jan-11 16:29N 22°35' E 120°18'0 0.0
2015-Jan-11 15:29N 22°35' E 120°18'0 0.0
2015-Jan-11 14:29N 22°35' E 120°18'0 0.0
2015-Jan-11 13:29N 22°35' E 120°18'0 0.0
2015-Jan-11 12:29N 22°35' E 120°18'0 0.0
2015-Jan-11 11:29N 22°35' E 120°18'0 0.0
2015-Jan-11 10:11N 22°35' E 120°18'0 0.0
2015-Jan-11 09:29N 22°35' E 120°18'0 0.0
2015-Jan-11 07:17N 22°35' E 120°18'0 0.0
2015-Jan-11 05:17N 22°35' E 120°18'0 0.0
2015-Jan-11 03:29N 22°35' E 120°18'0 0.0
2015-Jan-11 02:29N 22°35' E 120°18'0 0.0
2015-Jan-11 01:29N 22°35' E 120°18'0 0.0
2015-Jan-11 00:23N 22°35' E 120°18'1 0.7
2015-Jan-10 23:33N 22°36' E 120°17'6 6.5
2015-Jan-10 22:33N 22°37' E 120°10'3 2.9
2015-Jan-10 21:30N 22°36' E 120°07'0 0.3
2015-Jan-10 20:33N 22°36' E 120°07'7 7.4
2015-Jan-10 19:33N 22°29' E 120°10'1110.5
2015-Jan-10 18:33N 22°19' E 120°13'  

Dump ship's entire track history